Time;durP1;ratioP1;P1;durP2;ratioP2;P2;SDS_P1;SDS_P2;PMS_P1;PMS_P2;Temp;Humidity;BMP_temperature;BMP_pressure;BME280_temperature;BME280_humidity;BME280_pressure;Samples;Min_cycle;Max_cycle;Signal;HPM_P1;HPM_P2
2021/08/27 00:00:07;;;;;;;2.28;0.90;;;;;;;;;;4946674;28;20063;-50
2021/08/27 00:02:34;;;;;;;6.68;0.93;;;;;;;;;;4977100;28;20076;-53
2021/08/27 00:05:00;;;;;;;6.78;0.90;;;;;;;;;;4981423;28;20051;-51
2021/08/27 00:07:27;;;;;;;2.78;0.70;;;;;;;;;;4968048;28;20063;-55
2021/08/27 00:09:56;;;;;;;2.17;0.70;;;;;;;;;;4946468;28;20039;-55
2021/08/27 00:12:22;;;;;;;3.65;0.80;;;;;;;;;;4964233;28;20083;-55
2021/08/27 00:14:49;;;;;;;6.93;1.25;;;;;;;;;;4958951;28;20118;-57
2021/08/27 00:17:15;;;;;;;4.78;0.93;;;;;;;;;;4961856;28;20130;-55
2021/08/27 00:19:42;;;;;;;6.30;0.88;;;;;;;;;;4954011;28;20044;-53
2021/08/27 00:22:09;;;;;;;4.07;0.80;;;;;;;;;;4946639;28;20043;-56
2021/08/27 00:24:35;;;;;;;10.38;1.00;;;;;;;;;;4970647;28;20039;-54
2021/08/27 00:27:03;;;;;;;4.03;0.88;;;;;;;;;;4964251;28;20364;-55
2021/08/27 00:29:32;;;;;;;9.48;1.10;;;;;;;;;;4950917;28;20051;-52
2021/08/27 00:31:58;;;;;;;6.43;1.00;;;;;;;;;;4945754;29;20047;-51
2021/08/27 00:34:25;;;;;;;4.00;0.82;;;;;;;;;;4951664;28;20042;-52
2021/08/27 00:36:51;;;;;;;4.60;1.00;;;;;;;;;;4966972;28;20039;-55
2021/08/27 00:39:21;;;;;;;6.20;0.57;;;;;;;;;;4959409;28;20044;-53
2021/08/27 00:41:48;;;;;;;5.57;1.10;;;;;;;;;;4945134;28;20048;-50
2021/08/27 00:44:16;;;;;;;4.28;0.80;;;;;;;;;;4958392;28;20059;-53
2021/08/27 00:46:42;;;;;;;5.80;0.80;;;;;;;;;;4959339;28;20076;-54
2021/08/27 00:49:10;;;;;;;2.67;0.90;;;;;;;;;;4942750;28;20055;-53
2021/08/27 00:51:37;;;;;;;1.80;0.63;;;;;;;;;;4960632;28;20040;-52
2021/08/27 00:54:03;;;;;;;9.00;0.77;;;;;;;;;;4945105;28;20049;-55
2021/08/27 00:56:30;;;;;;;4.90;1.10;;;;;;;;;;4944270;28;20049;-56
2021/08/27 00:59:00;;;;;;;2.10;0.60;;;;;;;;;;4943512;29;20167;-55
2021/08/27 01:01:28;;;;;;;3.08;1.20;;;;;;;;;;4940839;28;20050;-56
2021/08/27 01:03:55;;;;;;;4.72;0.88;;;;;;;;;;4943809;29;20051;-56
2021/08/27 01:06:23;;;;;;;2.17;0.70;;;;;;;;;;4957497;28;20039;-55
2021/08/27 01:08:55;;;;;;;4.72;1.02;;;;;;;;;;4982047;28;20078;-54
2021/08/27 01:11:25;;;;;;;5.35;1.02;;;;;;;;;;4980241;28;20057;-53
2021/08/27 01:13:55;;;;;;;4.00;0.80;;;;;;;;;;4982460;28;20035;-53
2021/08/27 01:16:24;;;;;;;5.65;1.10;;;;;;;;;;4972105;28;20041;-50
2021/08/27 01:18:55;;;;;;;5.57;0.93;;;;;;;;;;4984713;28;20042;-52
2021/08/27 01:21:39;;;;;;;3.75;1.10;;;;;;;;;;4972327;28;20046;-53
2021/08/27 01:24:07;;;;;;;3.95;0.80;;;;;;;;;;4964742;28;20163;-54
2021/08/27 01:26:36;;;;;;;5.88;0.80;;;;;;;;;;4982824;28;20046;-55
2021/08/27 01:29:05;;;;;;;3.85;1.00;;;;;;;;;;4982810;28;20034;-54
2021/08/27 01:31:35;;;;;;;3.35;0.82;;;;;;;;;;4979308;28;20061;-53
2021/08/27 01:34:10;;;;;;;6.43;0.93;;;;;;;;;;4967956;28;20151;-49
2021/08/27 01:36:39;;;;;;;7.07;1.05;;;;;;;;;;4986353;28;20073;-56
2021/08/27 01:39:08;;;;;;;5.80;1.10;;;;;;;;;;5001540;28;20116;-55
2021/08/27 01:41:35;;;;;;;4.57;0.90;;;;;;;;;;4994590;28;20043;-56
2021/08/27 01:44:03;;;;;;;6.35;0.85;;;;;;;;;;4965065;28;20057;-51
2021/08/27 01:46:30;;;;;;;1.85;0.77;;;;;;;;;;4963494;28;20057;-53
2021/08/27 01:48:57;;;;;;;5.35;0.93;;;;;;;;;;4982771;28;20053;-55
2021/08/27 01:51:23;;;;;;;2.20;0.88;;;;;;;;;;4982864;28;20049;-53
2021/08/27 01:53:52;;;;;;;4.40;0.70;;;;;;;;;;4982824;28;20046;-54
2021/08/27 01:56:19;;;;;;;3.78;1.00;;;;;;;;;;4982015;28;20101;-54
2021/08/27 01:58:45;;;;;;;4.30;0.95;;;;;;;;;;4985047;28;20050;-51
2021/08/27 02:01:13;;;;;;;5.82;0.90;;;;;;;;;;4972686;28;20053;-55
2021/08/27 02:03:39;;;;;;;9.45;1.05;;;;;;;;;;4981999;28;20047;-56
2021/08/27 02:06:08;;;;;;;3.97;0.77;;;;;;;;;;5005413;28;20042;-57
2021/08/27 02:08:35;;;;;;;2.15;0.85;;;;;;;;;;4999250;28;20120;-57
2021/08/27 02:11:04;;;;;;;3.58;0.75;;;;;;;;;;4976170;28;20050;-55
2021/08/27 02:13:30;;;;;;;4.80;0.90;;;;;;;;;;4979608;28;20042;-55
2021/08/27 02:15:57;;;;;;;3.55;0.80;;;;;;;;;;4982831;28;20047;-52
2021/08/27 02:18:24;;;;;;;6.30;0.95;;;;;;;;;;4979129;28;20031;-56
2021/08/27 02:20:51;;;;;;;2.83;0.73;;;;;;;;;;4982240;28;20035;-53
2021/08/27 02:23:19;;;;;;;6.25;0.90;;;;;;;;;;4983607;28;20046;-56
2021/08/27 02:25:48;;;;;;;6.05;0.90;;;;;;;;;;5001333;28;20050;-56
2021/08/27 02:28:18;;;;;;;1.50;0.60;;;;;;;;;;4978914;28;20039;-55
2021/08/27 02:30:44;;;;;;;1.48;0.70;;;;;;;;;;4966228;28;20042;-56
2021/08/27 02:33:12;;;;;;;7.80;1.10;;;;;;;;;;4979127;28;20057;-53
2021/08/27 02:35:40;;;;;;;3.77;0.80;;;;;;;;;;4985416;28;20046;-50
2021/08/27 02:38:09;;;;;;;2.25;0.70;;;;;;;;;;4984113;28;20188;-52
2021/08/27 02:40:35;;;;;;;3.08;1.33;;;;;;;;;;4978724;28;20079;-52
2021/08/27 02:43:02;;;;;;;4.32;0.90;;;;;;;;;;4965907;28;20051;-53
2021/08/27 02:45:30;;;;;;;3.47;0.70;;;;;;;;;;4977784;28;20039;-51
2021/08/27 02:47:56;;;;;;;7.53;0.80;;;;;;;;;;4984058;28;20038;-54
2021/08/27 02:50:23;;;;;;;8.57;1.90;;;;;;;;;;4975047;28;20048;-55
2021/08/27 02:52:52;;;;;;;5.80;0.90;;;;;;;;;;4985880;28;20041;-54
2021/08/27 02:55:21;;;;;;;6.10;1.20;;;;;;;;;;4970336;28;20049;-56
2021/08/27 02:57:49;;;;;;;6.97;1.15;;;;;;;;;;4966035;28;20038;-55
2021/08/27 03:00:16;;;;;;;4.85;1.05;;;;;;;;;;4988747;28;20164;-54
2021/08/27 03:02:45;;;;;;;6.55;1.63;;;;;;;;;;4982116;28;20050;-54
2021/08/27 03:05:13;;;;;;;6.07;1.55;;;;;;;;;;4981459;28;20034;-54
2021/08/27 03:07:42;;;;;;;6.10;1.40;;;;;;;;;;4981106;28;20058;-55
2021/08/27 03:10:15;;;;;;;5.65;1.30;;;;;;;;;;4976405;28;20054;-51
2021/08/27 03:12:47;;;;;;;6.22;1.10;;;;;;;;;;4964484;28;20051;-50
2021/08/27 03:15:17;;;;;;;6.97;1.15;;;;;;;;;;4975023;28;20074;-52
2021/08/27 03:17:46;;;;;;;5.15;1.33;;;;;;;;;;4978514;28;20054;-55
2021/08/27 03:20:14;;;;;;;;;;;;;;;;;;4975936;28;20063;-52
2021/08/27 03:22:43;;;;;;;5.10;1.10;;;;;;;;;;4961258;28;20045;-52
2021/08/27 03:25:10;;;;;;;7.22;1.20;;;;;;;;;;4975720;28;20043;-53
2021/08/27 03:27:40;;;;;;;8.02;0.98;;;;;;;;;;4963286;28;20043;-54
2021/08/27 03:30:10;;;;;;;4.15;1.00;;;;;;;;;;4955964;28;20058;-52
2021/08/27 03:32:37;;;;;;;6.03;1.05;;;;;;;;;;4960838;28;20047;-53
2021/08/27 03:35:05;;;;;;;2.90;0.90;;;;;;;;;;4967579;28;20055;-55
2021/08/27 03:37:31;;;;;;;;;;;;;;;;;;4965119;28;20043;-55
2021/08/27 03:40:00;;;;;;;5.43;1.08;;;;;;;;;;4966161;28;20008;-55
2021/08/27 03:42:27;;;;;;;4.00;0.98;;;;;;;;;;4990273;28;20053;-52
2021/08/27 03:44:54;;;;;;;3.40;1.00;;;;;;;;;;5000455;28;20051;-51
2021/08/27 03:47:21;;;;;;;5.95;1.10;;;;;;;;;;4981294;28;20166;-52
2021/08/27 03:49:49;;;;;;;3.60;1.15;;;;;;;;;;4966527;28;20053;-56
2021/08/27 03:52:17;;;;;;;7.47;1.10;;;;;;;;;;4971301;28;20035;-52
2021/08/27 03:54:43;;;;;;;6.80;1.08;;;;;;;;;;4965273;28;20122;-53
2021/08/27 03:57:10;;;;;;;8.93;1.40;;;;;;;;;;4963581;28;20121;-52
2021/08/27 03:59:37;;;;;;;2.63;0.80;;;;;;;;;;4980483;28;20050;-51
2021/08/27 04:02:04;;;;;;;3.80;1.00;;;;;;;;;;4975462;28;20046;-54
2021/08/27 04:04:31;;;;;;;8.23;1.02;;;;;;;;;;4964785;28;20039;-52
2021/08/27 04:06:58;;;;;;;4.85;1.02;;;;;;;;;;4954780;28;20039;-54
2021/08/27 04:09:27;;;;;;;4.13;1.38;;;;;;;;;;4946948;28;20055;-54
2021/08/27 04:11:53;;;;;;;;;;;;;;;;;;4961409;28;20109;-52
2021/08/27 04:14:20;;;;;;;1.83;0.68;;;;;;;;;;4942909;28;20011;-55
2021/08/27 04:16:47;;;;;;;7.47;1.40;;;;;;;;;;4945412;29;20318;-55
2021/08/27 04:19:13;;;;;;;2.75;0.82;;;;;;;;;;4958439;28;20051;-54
2021/08/27 04:21:40;;;;;;;8.95;1.15;;;;;;;;;;4963725;28;20043;-54
2021/08/27 04:24:06;;;;;;;3.88;0.98;;;;;;;;;;4976575;28;20043;-54
2021/08/27 04:26:34;;;;;;;5.15;0.88;;;;;;;;;;4963400;28;20035;-54
2021/08/27 04:29:01;;;;;;;8.43;1.02;;;;;;;;;;4949272;28;20035;-54
2021/08/27 04:31:28;;;;;;;4.95;1.13;;;;;;;;;;4944673;29;20126;-54
2021/08/27 04:33:55;;;;;;;3.67;0.90;;;;;;;;;;4943813;28;20074;-55
2021/08/27 04:36:24;;;;;;;7.20;1.25;;;;;;;;;;4946105;28;20059;-56
2021/08/27 04:38:51;;;;;;;3.67;0.90;;;;;;;;;;4940752;28;20063;-55
2021/08/27 04:41:17;;;;;;;6.47;1.00;;;;;;;;;;4945961;28;20079;-54
2021/08/27 04:43:48;;;;;;;6.22;1.50;;;;;;;;;;4940676;28;20043;-51
2021/08/27 04:46:15;;;;;;;5.53;1.10;;;;;;;;;;4946145;28;20071;-54
2021/08/27 04:48:42;;;;;;;4.40;0.90;;;;;;;;;;4943503;28;20055;-52
2021/08/27 04:51:09;;;;;;;4.95;1.15;;;;;;;;;;4962772;28;20050;-55
2021/08/27 04:53:35;;;;;;;3.03;1.05;;;;;;;;;;4960617;28;20035;-55
2021/08/27 04:56:02;;;;;;;7.55;1.08;;;;;;;;;;4960057;28;20159;-55
2021/08/27 04:58:28;;;;;;;4.95;1.30;;;;;;;;;;4967292;28;20058;-54
2021/08/27 05:00:56;;;;;;;2.47;0.98;;;;;;;;;;4945389;28;20064;-56
2021/08/27 05:03:23;;;;;;;4.53;1.00;;;;;;;;;;4943850;29;20080;-53
2021/08/27 05:05:49;;;;;;;3.15;0.98;;;;;;;;;;4968006;28;20043;-55
2021/08/27 05:08:18;;;;;;;2.80;0.93;;;;;;;;;;4994742;28;20031;-54
2021/08/27 05:10:44;;;;;;;6.38;1.23;;;;;;;;;;4968479;28;20042;-55
2021/08/27 05:13:13;;;;;;;7.13;1.85;;;;;;;;;;4978556;28;20058;-55
2021/08/27 05:15:40;;;;;;;9.77;2.13;;;;;;;;;;4971009;28;20094;-50
2021/08/27 05:18:08;;;;;;;2.83;1.10;;;;;;;;;;4977695;28;20038;-53
2021/08/27 05:20:34;;;;;;;5.47;1.03;;;;;;;;;;4975922;28;20039;-54
2021/08/27 05:23:01;;;;;;;3.38;0.95;;;;;;;;;;4989343;28;20308;-55
2021/08/27 05:25:28;;;;;;;6.97;1.38;;;;;;;;;;4968821;28;20054;-56
2021/08/27 05:27:57;;;;;;;5.53;1.23;;;;;;;;;;4978490;28;20074;-56
2021/08/27 05:30:27;;;;;;;7.22;1.20;;;;;;;;;;4971994;28;20038;-54
2021/08/27 05:32:54;;;;;;;7.35;1.23;;;;;;;;;;4978097;28;20133;-53
2021/08/27 05:35:23;;;;;;;6.83;1.20;;;;;;;;;;4987627;28;20072;-54
2021/08/27 05:37:49;;;;;;;5.70;1.20;;;;;;;;;;4975913;28;20131;-55
2021/08/27 05:40:16;;;;;;;5.78;1.30;;;;;;;;;;4971360;28;20062;-53
2021/08/27 05:42:43;;;;;;;5.15;1.15;;;;;;;;;;4971540;28;20038;-55
2021/08/27 05:45:11;;;;;;;9.20;1.88;;;;;;;;;;4990631;28;20053;-54
2021/08/27 05:47:38;;;;;;;6.53;1.70;;;;;;;;;;4961425;28;20121;-55
2021/08/27 05:50:06;;;;;;;6.45;1.50;;;;;;;;;;4976086;28;20057;-56
2021/08/27 05:52:34;;;;;;;3.22;1.05;;;;;;;;;;4970950;28;20109;-51
2021/08/27 05:55:01;;;;;;;3.97;1.23;;;;;;;;;;4981451;28;20097;-54
2021/08/27 05:57:27;;;;;;;6.72;1.20;;;;;;;;;;4990329;28;20362;-55
2021/08/27 05:59:54;;;;;;;4.18;1.10;;;;;;;;;;4975779;28;20062;-52
2021/08/27 06:02:20;;;;;;;7.90;2.15;;;;;;;;;;4990455;28;20068;-54
2021/08/27 06:04:47;;;;;;;21.30;7.90;;;;;;;;;;4975186;28;20046;-55
2021/08/27 06:07:13;;;;;;;10.63;3.20;;;;;;;;;;4977545;28;20047;-55
2021/08/27 06:09:42;;;;;;;3.13;1.08;;;;;;;;;;4984113;28;20042;-54
2021/08/27 06:12:09;;;;;;;5.45;1.25;;;;;;;;;;4974650;28;20058;-55
2021/08/27 06:14:35;;;;;;;5.18;1.10;;;;;;;;;;4961795;28;20158;-52
2021/08/27 06:17:02;;;;;;;4.40;1.00;;;;;;;;;;4975457;28;20166;-52
2021/08/27 06:19:28;;;;;;;2.35;0.70;;;;;;;;;;4981718;28;20043;-52
2021/08/27 06:21:57;;;;;;;6.07;1.10;;;;;;;;;;4997485;28;20026;-52
2021/08/27 06:24:24;;;;;;;2.63;0.68;;;;;;;;;;4997058;28;20046;-56
2021/08/27 06:26:52;;;;;;;5.18;1.00;;;;;;;;;;4998309;28;20042;-54
2021/08/27 06:29:18;;;;;;;4.27;1.07;;;;;;;;;;4977814;28;20132;-55
2021/08/27 06:31:45;;;;;;;5.22;0.80;;;;;;;;;;4981647;28;20046;-57
2021/08/27 06:34:11;;;;;;;8.18;0.85;;;;;;;;;;4980815;28;20062;-56
2021/08/27 06:36:37;;;;;;;7.38;0.93;;;;;;;;;;4978890;28;20047;-56
2021/08/27 06:39:05;;;;;;;6.32;1.30;;;;;;;;;;4972528;28;20050;-56
2021/08/27 06:41:32;;;;;;;6.03;1.17;;;;;;;;;;4982076;28;20047;-56
2021/08/27 06:43:59;;;;;;;7.10;1.50;;;;;;;;;;4977716;28;20039;-53
2021/08/27 06:46:27;;;;;;;4.63;1.00;;;;;;;;;;4998239;28;20124;-55
2021/08/27 06:48:53;;;;;;;10.25;1.15;;;;;;;;;;4978309;28;20038;-55
2021/08/27 06:51:20;;;;;;;7.88;1.13;;;;;;;;;;4981147;28;20108;-54
2021/08/27 06:53:47;;;;;;;3.25;1.10;;;;;;;;;;4977772;28;20138;-53
2021/08/27 06:56:13;;;;;;;4.93;1.00;;;;;;;;;;4947728;28;20046;-55
2021/08/27 06:58:40;;;;;;;3.85;0.98;;;;;;;;;;4974769;28;20050;-56
2021/08/27 07:01:07;;;;;;;4.70;1.02;;;;;;;;;;4978753;28;20043;-53
2021/08/27 07:03:37;;;;;;;4.33;0.90;;;;;;;;;;4977619;28;20039;-56
2021/08/27 07:06:03;;;;;;;3.00;0.90;;;;;;;;;;4976755;28;20142;-54
2021/08/27 07:08:31;;;;;;;7.22;1.30;;;;;;;;;;4957638;28;20054;-55
2021/08/27 07:10:57;;;;;;;7.37;1.00;;;;;;;;;;4949851;28;20061;-55
2021/08/27 07:13:25;;;;;;;9.90;1.27;;;;;;;;;;4962396;28;20039;-56
2021/08/27 07:15:51;;;;;;;7.88;1.00;;;;;;;;;;4944412;28;20055;-54
2021/08/27 07:18:19;;;;;;;6.78;1.20;;;;;;;;;;4942443;28;20062;-55
2021/08/27 07:20:46;;;;;;;4.68;1.02;;;;;;;;;;4949160;28;20020;-54
2021/08/27 07:23:14;;;;;;;4.20;1.23;;;;;;;;;;4943098;28;20043;-56
2021/08/27 07:25:40;;;;;;;5.07;0.98;;;;;;;;;;4949621;28;20079;-55
2021/08/27 07:28:07;;;;;;;9.65;1.35;;;;;;;;;;4963812;28;20039;-54
2021/08/27 07:30:33;;;;;;;6.57;1.17;;;;;;;;;;4954402;28;20048;-55
2021/08/27 07:33:00;;;;;;;5.85;1.17;;;;;;;;;;4958237;28;20048;-56
2021/08/27 07:35:28;;;;;;;3.92;1.00;;;;;;;;;;4958434;28;20043;-52
2021/08/27 07:37:56;;;;;;;8.17;1.33;;;;;;;;;;4962917;28;20050;-56
2021/08/27 07:40:24;;;;;;;6.70;1.23;;;;;;;;;;4955471;28;20066;-55
2021/08/27 07:42:50;;;;;;;9.00;1.40;;;;;;;;;;4957132;28;20056;-54
2021/08/27 07:45:17;;;;;;;8.30;1.40;;;;;;;;;;4957248;28;20356;-54
2021/08/27 07:47:44;;;;;;;4.45;1.52;;;;;;;;;;4958387;28;20054;-55
2021/08/27 07:50:11;;;;;;;4.47;1.08;;;;;;;;;;4943279;29;20047;-54
2021/08/27 07:52:39;;;;;;;2.90;1.10;;;;;;;;;;4954745;28;20040;-54
2021/08/27 07:55:06;;;;;;;6.20;1.08;;;;;;;;;;4961139;28;20075;-55
2021/08/27 07:57:33;;;;;;;9.45;1.35;;;;;;;;;;4952189;28;20047;-55
2021/08/27 08:00:00;;;;;;;5.15;0.93;;;;;;;;;;4959711;28;20039;-54
2021/08/27 08:02:26;;;;;;;7.40;1.42;;;;;;;;;;4943630;28;20051;-56
2021/08/27 08:04:53;;;;;;;5.43;1.20;;;;;;;;;;4943075;28;20048;-55
2021/08/27 08:07:19;;;;;;;5.35;1.17;;;;;;;;;;4947940;28;20133;-56
2021/08/27 08:09:51;;;;;;;3.92;1.17;;;;;;;;;;4976639;28;20049;-54
2021/08/27 08:12:17;;;;;;;6.07;1.17;;;;;;;;;;4965161;28;20050;-53
2021/08/27 08:14:44;;;;;;;6.22;1.35;;;;;;;;;;4957853;28;20114;-54
2021/08/27 08:17:10;;;;;;;6.65;1.10;;;;;;;;;;4955849;28;20122;-56
2021/08/27 08:19:37;;;;;;;7.00;1.13;;;;;;;;;;4944266;28;20048;-55
2021/08/27 08:22:04;;;;;;;6.32;1.20;;;;;;;;;;4945941;28;20036;-55
2021/08/27 08:24:31;;;;;;;6.50;1.17;;;;;;;;;;4964210;28;20098;-55
2021/08/27 08:26:59;;;;;;;5.60;1.08;;;;;;;;;;4961159;28;20058;-55
2021/08/27 08:29:25;;;;;;;6.93;1.00;;;;;;;;;;4945302;28;20052;-53
2021/08/27 08:31:52;;;;;;;6.88;1.20;;;;;;;;;;4944873;29;20270;-54
2021/08/27 08:34:19;;;;;;;4.43;1.13;;;;;;;;;;4958518;28;20079;-56
2021/08/27 08:36:46;;;;;;;5.45;1.48;;;;;;;;;;4961756;28;20071;-54
2021/08/27 08:39:14;;;;;;;4.47;1.15;;;;;;;;;;4957065;28;20051;-54
2021/08/27 08:41:41;;;;;;;5.05;1.15;;;;;;;;;;4965342;28;20121;-56
2021/08/27 08:44:09;;;;;;;6.13;1.17;;;;;;;;;;4960718;28;20059;-56
2021/08/27 08:46:35;;;;;;;9.90;1.33;;;;;;;;;;4964642;28;20050;-53
2021/08/27 08:49:02;;;;;;;2.75;0.98;;;;;;;;;;4949674;28;20091;-56
2021/08/27 08:51:30;;;;;;;10.70;1.42;;;;;;;;;;4961485;28;20036;-55
2021/08/27 08:53:56;;;;;;;6.20;1.30;;;;;;;;;;4943402;28;20054;-55
2021/08/27 08:56:23;;;;;;;10.75;1.73;;;;;;;;;;4963705;28;20035;-55
2021/08/27 08:58:50;;;;;;;7.90;1.35;;;;;;;;;;4955061;28;20280;-55
2021/08/27 09:01:18;;;;;;;5.93;1.25;;;;;;;;;;4945002;28;20051;-56
2021/08/27 09:03:45;;;;;;;5.88;1.42;;;;;;;;;;4942287;28;20064;-55
2021/08/27 09:06:12;;;;;;;3.63;1.40;;;;;;;;;;4946587;28;20055;-57
2021/08/27 09:08:39;;;;;;;11.35;1.58;;;;;;;;;;4962825;28;20038;-54
2021/08/27 09:11:14;;;;;;;4.28;0.95;;;;;;;;;;4994421;28;20062;-57
2021/08/27 09:13:41;;;;;;;4.82;1.35;;;;;;;;;;5002093;28;20034;-56
2021/08/27 09:16:08;;;;;;;6.88;1.38;;;;;;;;;;4983729;28;20051;-56
2021/08/27 09:18:41;;;;;;;6.55;1.38;;;;;;;;;;4967020;28;20058;-57
2021/08/27 09:21:27;;;;;;;5.18;1.20;;;;;;;;;;4979889;28;20050;-55
2021/08/27 09:24:25;;;;;;;12.05;1.95;;;;;;;;;;4966670;28;20042;-55
2021/08/27 09:26:53;;;;;;;8.82;1.25;;;;;;;;;;4888742;29;20157;-56
2021/08/27 09:29:32;;;;;;;7.10;1.45;;;;;;;;;;4945447;28;20038;-54
2021/08/27 09:31:59;;;;;;;4.35;1.40;;;;;;;;;;4964992;28;20051;-55
2021/08/27 09:34:28;;;;;;;10.73;1.45;;;;;;;;;;4968558;28;20038;-57
2021/08/27 09:36:57;;;;;;;8.38;1.75;;;;;;;;;;4984408;28;20128;-57
2021/08/27 09:39:31;;;;;;;8.60;1.25;;;;;;;;;;4987801;28;20045;-58
2021/08/27 09:41:58;;;;;;;3.30;0.85;;;;;;;;;;4964088;28;20050;-54
2021/08/27 09:44:24;;;;;;;4.63;1.48;;;;;;;;;;4966434;28;20046;-55
2021/08/27 09:46:51;;;;;;;9.35;1.33;;;;;;;;;;4976484;28;20126;-55
2021/08/27 09:49:25;;;;;;;3.15;1.10;;;;;;;;;;4967146;28;20050;-56
2021/08/27 09:51:53;;;;;;;6.97;1.40;;;;;;;;;;4963221;28;20090;-56
2021/08/27 09:54:23;;;;;;;6.80;1.13;;;;;;;;;;4986223;28;20042;-54
2021/08/27 09:56:52;;;;;;;8.65;1.48;;;;;;;;;;4995882;28;20061;-56
2021/08/27 09:59:19;;;;;;;6.32;1.17;;;;;;;;;;4986173;28;20110;-56
2021/08/27 10:01:46;;;;;;;5.45;1.27;;;;;;;;;;4979103;28;20056;-57
2021/08/27 10:04:13;;;;;;;5.05;1.20;;;;;;;;;;4967645;28;20058;-56
2021/08/27 10:06:39;;;;;;;5.40;1.05;;;;;;;;;;4971409;28;20034;-56
2021/08/27 10:09:07;;;;;;;6.60;1.15;;;;;;;;;;5000561;28;20058;-55
2021/08/27 10:11:34;;;;;;;4.80;1.13;;;;;;;;;;4976445;28;20047;-56
2021/08/27 10:14:01;;;;;;;2.22;0.95;;;;;;;;;;4966385;28;20050;-56
2021/08/27 10:16:29;;;;;;;7.65;1.30;;;;;;;;;;4982107;28;20046;-56
2021/08/27 10:18:55;;;;;;;11.13;1.90;;;;;;;;;;4986592;28;20095;-54
2021/08/27 10:21:22;;;;;;;7.22;1.92;;;;;;;;;;4980422;28;20041;-56
2021/08/27 10:23:48;;;;;;;7.53;1.27;;;;;;;;;;4983063;28;20053;-56
2021/08/27 10:26:17;;;;;;;10.18;1.63;;;;;;;;;;4966361;28;20053;-57
2021/08/27 10:28:44;;;;;;;10.38;1.83;;;;;;;;;;4964171;28;20030;-57
2021/08/27 10:31:10;;;;;;;6.13;1.15;;;;;;;;;;4965933;28;20039;-56
2021/08/27 10:34:06;;;;;;;4.45;1.30;;;;;;;;;;4974176;28;20057;-57
2021/08/27 10:37:00;;;;;;;5.97;1.13;;;;;;;;;;4966421;28;20058;-57
2021/08/27 10:39:34;;;;;;;6.65;1.05;;;;;;;;;;4966386;28;20088;-55
2021/08/27 10:42:02;;;;;;;5.63;1.20;;;;;;;;;;4963319;28;20053;-57
2021/08/27 10:44:48;;;;;;;5.65;1.30;;;;;;;;;;4980093;28;20068;-58
2021/08/27 10:47:14;;;;;;;4.40;1.08;;;;;;;;;;5002191;28;20061;-55
2021/08/27 10:49:58;;;;;;;4.18;1.17;;;;;;;;;;5000041;28;20112;-56
2021/08/27 10:52:33;;;;;;;5.68;1.08;;;;;;;;;;4984891;28;20042;-57
2021/08/27 10:55:16;;;;;;;4.55;1.17;;;;;;;;;;4980466;28;20058;-54
2021/08/27 10:57:45;;;;;;;2.85;0.93;;;;;;;;;;4964321;28;20105;-57
2021/08/27 11:00:13;;;;;;;5.05;1.25;;;;;;;;;;4980018;28;20060;-54
2021/08/27 11:02:52;;;;;;;7.05;1.20;;;;;;;;;;4983097;28;20043;-57
2021/08/27 11:05:32;;;;;;;9.15;1.33;;;;;;;;;;4978761;28;20058;-57
2021/08/27 11:08:06;;;;;;;7.78;1.17;;;;;;;;;;4985885;28;20038;-58
2021/08/27 11:10:33;;;;;;;3.35;0.93;;;;;;;;;;4984439;28;20038;-57
2021/08/27 11:13:01;;;;;;;4.95;1.10;;;;;;;;;;4986254;28;20039;-57
2021/08/27 11:15:30;;;;;;;6.50;1.20;;;;;;;;;;4979751;28;20046;-57
2021/08/27 11:18:25;;;;;;;6.10;0.90;;;;;;;;;;5003138;28;20042;-57
2021/08/27 11:20:53;;;;;;;3.33;1.10;;;;;;;;;;4936944;28;20048;-58
2021/08/27 11:23:20;;;;;;;2.60;1.00;;;;;;;;;;4965217;28;20066;-57
2021/08/27 11:26:07;;;;;;;5.15;0.90;;;;;;;;;;4976698;28;20051;-56
2021/08/27 11:28:35;;;;;;;5.65;1.70;;;;;;;;;;4946821;28;20051;-57
2021/08/27 11:31:05;;;;;;;4.83;0.93;;;;;;;;;;4968943;28;20049;-56
2021/08/27 11:33:51;;;;;;;2.83;0.82;;;;;;;;;;4983848;28;20282;-56
2021/08/27 11:36:18;;;;;;;3.25;0.90;;;;;;;;;;4997783;28;20061;-57
2021/08/27 11:38:44;;;;;;;5.13;0.82;;;;;;;;;;4984910;28;20042;-57
2021/08/27 11:41:11;;;;;;;6.20;0.70;;;;;;;;;;4980109;28;20038;-56
2021/08/27 11:43:48;;;;;;;5.45;1.10;;;;;;;;;;4982781;28;20042;-58
2021/08/27 11:46:15;;;;;;;5.20;1.10;;;;;;;;;;4976770;28;20055;-57
2021/08/27 11:48:44;;;;;;;3.47;0.95;;;;;;;;;;4965030;28;20049;-57
2021/08/27 11:51:13;;;;;;;6.90;0.80;;;;;;;;;;4973154;28;20054;-55
2021/08/27 11:53:40;;;;;;;6.00;0.88;;;;;;;;;;5003272;28;20041;-58
2021/08/27 11:56:06;;;;;;;8.93;1.38;;;;;;;;;;4992190;28;20043;-56
2021/08/27 11:58:42;;;;;;;5.75;1.10;;;;;;;;;;5001545;28;20049;-55
2021/08/27 12:01:22;;;;;;;7.07;1.23;;;;;;;;;;5000753;28;20173;-54
2021/08/27 12:03:49;;;;;;;6.53;1.15;;;;;;;;;;5002433;28;20042;-57
2021/08/27 12:06:18;;;;;;;7.03;1.05;;;;;;;;;;4994192;28;20050;-57
2021/08/27 12:08:45;;;;;;;8.02;1.33;;;;;;;;;;4983737;28;20042;-55
2021/08/27 12:11:12;;;;;;;11.75;1.40;;;;;;;;;;4970361;28;20042;-57
2021/08/27 12:13:51;;;;;;;8.65;1.48;;;;;;;;;;5002639;28;20053;-57
2021/08/27 12:16:19;;;;;;;8.40;1.50;;;;;;;;;;4980980;28;20052;-56
2021/08/27 12:18:45;;;;;;;6.65;1.30;;;;;;;;;;4986100;28;20030;-53
2021/08/27 12:21:18;;;;;;;8.95;1.67;;;;;;;;;;4996561;28;20392;-57
2021/08/27 12:23:57;;;;;;;3.72;1.15;;;;;;;;;;4966540;28;20059;-58
2021/08/27 12:26:23;;;;;;;;;;;;;;;;;;4965577;28;20063;-57
2021/08/27 12:28:51;;;;;;;11.20;1.55;;;;;;;;;;4966416;28;20019;-56
2021/08/27 12:31:17;;;;;;;8.63;1.80;;;;;;;;;;4984349;28;20042;-55
2021/08/27 12:33:44;;;;;;;7.00;1.33;;;;;;;;;;5000468;28;20039;-55
2021/08/27 12:36:12;;;;;;;7.45;1.70;;;;;;;;;;4986133;28;20050;-58
2021/08/27 12:38:39;;;;;;;4.78;1.10;;;;;;;;;;4985238;28;20034;-56
2021/08/27 12:41:13;;;;;;;6.93;1.15;;;;;;;;;;4968212;28;20031;-59
2021/08/27 12:43:40;;;;;;;9.52;1.65;;;;;;;;;;4981971;28;20056;-58
2021/08/27 12:46:07;;;;;;;5.65;1.10;;;;;;;;;;5004952;28;20054;-54
2021/08/27 12:48:35;;;;;;;5.90;1.35;;;;;;;;;;4970198;28;20075;-53
2021/08/27 12:51:02;;;;;;;10.65;1.50;;;;;;;;;;4967744;28;20038;-56
2021/08/27 12:53:30;;;;;;;6.90;1.40;;;;;;;;;;4964176;28;20062;-57
2021/08/27 12:56:07;;;;;;;5.50;1.33;;;;;;;;;;4997642;28;20042;-57
2021/08/27 12:58:34;;;;;;;10.20;1.50;;;;;;;;;;4974004;28;20116;-56
2021/08/27 13:01:13;;;;;;;6.22;1.23;;;;;;;;;;4967531;28;20053;-57
2021/08/27 13:03:40;;;;;;;8.27;1.60;;;;;;;;;;4972398;28;20050;-57
2021/08/27 13:06:06;;;;;;;7.00;1.48;;;;;;;;;;4987113;28;20046;-56
2021/08/27 13:08:32;;;;;;;8.75;1.77;;;;;;;;;;4991475;28;20049;-55
2021/08/27 13:11:00;;;;;;;9.48;1.42;;;;;;;;;;4983196;28;20043;-57
2021/08/27 13:13:28;;;;;;;8.18;1.50;;;;;;;;;;4980690;28;20050;-57
2021/08/27 13:16:11;;;;;;;10.07;2.00;;;;;;;;;;4967259;28;20035;-57
2021/08/27 13:18:43;;;;;;;9.05;1.80;;;;;;;;;;4965400;28;20050;-57
2021/08/27 13:21:10;;;;;;;5.35;1.20;;;;;;;;;;4982363;28;20113;-58
2021/08/27 13:23:36;;;;;;;6.32;1.50;;;;;;;;;;4965200;28;20050;-55
2021/08/27 13:26:07;;;;;;;5.53;1.35;;;;;;;;;;4980854;28;20042;-54
2021/08/27 13:28:34;;;;;;;8.10;1.58;;;;;;;;;;4981802;28;20049;-56
2021/08/27 13:31:00;;;;;;;10.60;2.00;;;;;;;;;;4985087;28;20098;-56
2021/08/27 13:33:27;;;;;;;8.90;1.75;;;;;;;;;;4985741;28;20038;-55
2021/08/27 13:35:55;;;;;;;7.47;1.48;;;;;;;;;;4997492;28;20161;-55
2021/08/27 13:38:22;;;;;;;4.88;1.25;;;;;;;;;;4983274;28;20038;-52
2021/08/27 13:40:48;;;;;;;5.38;1.27;;;;;;;;;;4977633;28;20133;-54
2021/08/27 13:43:14;;;;;;;9.85;1.60;;;;;;;;;;4965235;28;20182;-55
2021/08/27 13:45:41;;;;;;;9.48;1.50;;;;;;;;;;4990837;28;20124;-56
2021/08/27 13:48:07;;;;;;;7.80;1.20;;;;;;;;;;5000847;28;20048;-55
2021/08/27 13:50:34;;;;;;;9.98;1.15;;;;;;;;;;4988524;28;20049;-56
2021/08/27 13:53:02;;;;;;;5.88;1.58;;;;;;;;;;4982184;28;20050;-54
2021/08/27 13:55:28;;;;;;;4.95;1.33;;;;;;;;;;4989380;28;20050;-56
2021/08/27 13:57:57;;;;;;;7.22;1.10;;;;;;;;;;4984953;28;20039;-55
2021/08/27 14:00:24;;;;;;;4.75;1.58;;;;;;;;;;4989137;28;20050;-55
2021/08/27 14:02:50;;;;;;;5.60;1.15;;;;;;;;;;4985624;28;20044;-54
2021/08/27 14:05:17;;;;;;;5.72;1.27;;;;;;;;;;4994380;28;20058;-55
2021/08/27 14:07:44;;;;;;;8.45;1.60;;;;;;;;;;4967858;28;20101;-55
2021/08/27 14:10:17;;;;;;;4.72;1.33;;;;;;;;;;4977038;28;20073;-57
2021/08/27 14:12:44;;;;;;;6.05;2.08;;;;;;;;;;4986041;28;20041;-55
2021/08/27 14:15:12;;;;;;;7.03;1.35;;;;;;;;;;4968541;28;20030;-55
2021/08/27 14:17:38;;;;;;;8.48;1.52;;;;;;;;;;4982331;28;20042;-54
2021/08/27 14:20:06;;;;;;;6.03;1.20;;;;;;;;;;4988132;28;20116;-57
2021/08/27 14:22:32;;;;;;;7.30;1.10;;;;;;;;;;4978623;28;20038;-56
2021/08/27 14:24:59;;;;;;;10.35;1.63;;;;;;;;;;4966047;28;20069;-57
2021/08/27 14:27:27;;;;;;;5.03;1.00;;;;;;;;;;4993969;28;20053;-57
2021/08/27 14:29:54;;;;;;;5.75;1.17;;;;;;;;;;5002810;28;20026;-55
2021/08/27 14:32:21;;;;;;;8.25;0.90;;;;;;;;;;4988843;28;20041;-57
2021/08/27 14:34:48;;;;;;;6.35;1.10;;;;;;;;;;4981447;28;20074;-56
2021/08/27 14:37:14;;;;;;;9.45;1.17;;;;;;;;;;4981245;28;20050;-56
2021/08/27 14:39:41;;;;;;;4.50;1.27;;;;;;;;;;4983978;28;20038;-57
2021/08/27 14:42:08;;;;;;;8.13;1.25;;;;;;;;;;4965873;28;20042;-58
2021/08/27 14:44:35;;;;;;;6.10;1.70;;;;;;;;;;4956412;28;20070;-57
2021/08/27 14:47:05;;;;;;;5.97;1.35;;;;;;;;;;4966190;28;20197;-56
2021/08/27 14:49:34;;;;;;;6.57;1.35;;;;;;;;;;5003630;28;20046;-52